sensor_id;sensor_type;location;lat;lon;timestamp;temperature;humidity
43581;DHT22;29175;51.030;4.606;2023-11-19T00:01:34;13.60;99.90
43581;DHT22;29175;51.030;4.606;2023-11-19T00:04:00;13.60;99.90
43581;DHT22;29175;51.030;4.606;2023-11-19T00:06:25;13.60;99.90
43581;DHT22;29175;51.030;4.606;2023-11-19T00:08:51;13.50;99.90
43581;DHT22;29175;51.030;4.606;2023-11-19T00:11:17;13.50;99.90
43581;DHT22;29175;51.030;4.606;2023-11-19T00:13:42;13.50;99.90
43581;DHT22;29175;51.030;4.606;2023-11-19T00:16:08;13.60;99.90
43581;DHT22;29175;51.030;4.606;2023-11-19T00:18:35;13.60;99.90
43581;DHT22;29175;51.030;4.606;2023-11-19T00:21:02;13.60;99.90
43581;DHT22;29175;51.030;4.606;2023-11-19T00:23:28;13.60;99.90
43581;DHT22;29175;51.030;4.606;2023-11-19T00:25:53;13.60;99.90
43581;DHT22;29175;51.030;4.606;2023-11-19T00:28:19;13.60;99.90
43581;DHT22;29175;51.030;4.606;2023-11-19T00:30:45;13.60;99.90
43581;DHT22;29175;51.030;4.606;2023-11-19T00:33:10;13.60;99.90
43581;DHT22;29175;51.030;4.606;2023-11-19T00:35:36;13.60;99.90
43581;DHT22;29175;51.030;4.606;2023-11-19T00:38:02;13.60;99.90
43581;DHT22;29175;51.030;4.606;2023-11-19T00:40:30;13.60;99.90
43581;DHT22;29175;51.030;4.606;2023-11-19T00:42:56;13.60;99.90
43581;DHT22;29175;51.030;4.606;2023-11-19T00:45:21;13.50;99.90
43581;DHT22;29175;51.030;4.606;2023-11-19T00:47:47;13.70;99.90
43581;DHT22;29175;51.030;4.606;2023-11-19T00:50:13;13.60;99.90
43581;DHT22;29175;51.030;4.606;2023-11-19T00:52:39;13.60;99.90
43581;DHT22;29175;51.030;4.606;2023-11-19T00:55:05;13.60;99.90
43581;DHT22;29175;51.030;4.606;2023-11-19T00:57:33;13.70;99.90
43581;DHT22;29175;51.030;4.606;2023-11-19T00:59:59;13.60;99.90
43581;DHT22;29175;51.030;4.606;2023-11-19T01:02:27;13.60;99.90
43581;DHT22;29175;51.030;4.606;2023-11-19T01:04:53;13.70;99.90
43581;DHT22;29175;51.030;4.606;2023-11-19T01:07:18;13.70;99.90
43581;DHT22;29175;51.030;4.606;2023-11-19T01:09:44;13.70;99.90
43581;DHT22;29175;51.030;4.606;2023-11-19T01:12:10;13.70;99.90
43581;DHT22;29175;51.030;4.606;2023-11-19T01:14:36;13.70;99.90
43581;DHT22;29175;51.030;4.606;2023-11-19T01:17:02;13.70;99.90
43581;DHT22;29175;51.030;4.606;2023-11-19T01:19:30;13.70;99.90
43581;DHT22;29175;51.030;4.606;2023-11-19T01:21:55;13.60;99.90
43581;DHT22;29175;51.030;4.606;2023-11-19T01:24:22;13.60;99.90
43581;DHT22;29175;51.030;4.606;2023-11-19T01:26:48;13.60;99.90
43581;DHT22;29175;51.030;4.606;2023-11-19T01:29:15;13.60;99.90
43581;DHT22;29175;51.030;4.606;2023-11-19T01:31:46;13.70;99.90
43581;DHT22;29175;51.030;4.606;2023-11-19T01:34:12;13.70;99.90
43581;DHT22;29175;51.030;4.606;2023-11-19T01:36:39;13.80;99.90
43581;DHT22;29175;51.030;4.606;2023-11-19T01:39:06;13.70;99.90
43581;DHT22;29175;51.030;4.606;2023-11-19T01:41:35;13.70;99.90
43581;DHT22;29175;51.030;4.606;2023-11-19T01:44:02;13.70;99.90
43581;DHT22;29175;51.030;4.606;2023-11-19T01:46:28;13.80;99.90
43581;DHT22;29175;51.030;4.606;2023-11-19T01:48:55;13.70;99.90
43581;DHT22;29175;51.030;4.606;2023-11-19T01:51:23;13.60;99.90
43581;DHT22;29175;51.030;4.606;2023-11-19T01:53:50;13.60;99.90
43581;DHT22;29175;51.030;4.606;2023-11-19T01:56:16;13.60;99.90
43581;DHT22;29175;51.030;4.606;2023-11-19T01:58:44;13.50;99.90
43581;DHT22;29175;51.030;4.606;2023-11-19T02:01:11;13.50;99.90
43581;DHT22;29175;51.030;4.606;2023-11-19T02:03:39;13.40;99.90
43581;DHT22;29175;51.030;4.606;2023-11-19T02:06:05;13.30;99.90
43581;DHT22;29175;51.030;4.606;2023-11-19T02:08:32;13.30;99.90
43581;DHT22;29175;51.030;4.606;2023-11-19T02:10:57;13.30;99.90
43581;DHT22;29175;51.030;4.606;2023-11-19T02:13:27;13.10;99.90
43581;DHT22;29175;51.030;4.606;2023-11-19T02:15:54;13.10;99.90
43581;DHT22;29175;51.030;4.606;2023-11-19T02:18:25;13.10;99.90
43581;DHT22;29175;51.030;4.606;2023-11-19T02:20:56;13.00;99.90
43581;DHT22;29175;51.030;4.606;2023-11-19T02:23:23;12.90;99.90
43581;DHT22;29175;51.030;4.606;2023-11-19T02:28:21;13.00;99.90
43581;DHT22;29175;51.030;4.606;2023-11-19T02:30:48;13.10;99.90
43581;DHT22;29175;51.030;4.606;2023-11-19T02:33:15;13.10;99.90
43581;DHT22;29175;51.030;4.606;2023-11-19T02:35:40;13.20;99.90
43581;DHT22;29175;51.030;4.606;2023-11-19T02:38:07;13.20;99.90
43581;DHT22;29175;51.030;4.606;2023-11-19T02:40:34;13.20;99.90
43581;DHT22;29175;51.030;4.606;2023-11-19T02:43:01;13.10;99.90
43581;DHT22;29175;51.030;4.606;2023-11-19T02:45:29;13.10;99.90
43581;DHT22;29175;51.030;4.606;2023-11-19T02:47:56;13.00;99.90
43581;DHT22;29175;51.030;4.606;2023-11-19T02:50:22;13.00;99.90
43581;DHT22;29175;51.030;4.606;2023-11-19T02:52:55;13.00;99.90
43581;DHT22;29175;51.030;4.606;2023-11-19T02:55:22;12.90;99.90
43581;DHT22;29175;51.030;4.606;2023-11-19T02:57:49;12.90;99.90
43581;DHT22;29175;51.030;4.606;2023-11-19T03:00:19;12.90;99.90
43581;DHT22;29175;51.030;4.606;2023-11-19T03:02:50;12.90;99.90
43581;DHT22;29175;51.030;4.606;2023-11-19T03:05:31;12.90;99.90
43581;DHT22;29175;51.030;4.606;2023-11-19T03:07:56;13.00;99.90
43581;DHT22;29175;51.030;4.606;2023-11-19T03:10:24;13.00;99.90
43581;DHT22;29175;51.030;4.606;2023-11-19T03:12:51;13.10;99.90
43581;DHT22;29175;51.030;4.606;2023-11-19T03:15:16;13.00;99.90
43581;DHT22;29175;51.030;4.606;2023-11-19T03:17:42;13.00;99.90
43581;DHT22;29175;51.030;4.606;2023-11-19T03:20:10;12.90;99.90
43581;DHT22;29175;51.030;4.606;2023-11-19T03:22:39;12.90;99.90
43581;DHT22;29175;51.030;4.606;2023-11-19T03:25:08;12.90;99.90
43581;DHT22;29175;51.030;4.606;2023-11-19T03:27:38;12.90;99.90
43581;DHT22;29175;51.030;4.606;2023-11-19T03:30:05;12.80;99.90
43581;DHT22;29175;51.030;4.606;2023-11-19T03:32:32;12.80;99.90
43581;DHT22;29175;51.030;4.606;2023-11-19T03:34:58;12.80;99.90
43581;DHT22;29175;51.030;4.606;2023-11-19T03:37:26;12.80;99.90
43581;DHT22;29175;51.030;4.606;2023-11-19T03:39:54;12.70;99.90
43581;DHT22;29175;51.030;4.606;2023-11-19T03:42:20;12.70;99.90
43581;DHT22;29175;51.030;4.606;2023-11-19T03:44:46;12.70;99.90
43581;DHT22;29175;51.030;4.606;2023-11-19T03:47:12;12.60;99.90
43581;DHT22;29175;51.030;4.606;2023-11-19T03:49:37;12.60;99.90
43581;DHT22;29175;51.030;4.606;2023-11-19T03:52:03;12.60;99.90
43581;DHT22;29175;51.030;4.606;2023-11-19T03:54:32;12.70;99.90
43581;DHT22;29175;51.030;4.606;2023-11-19T03:56:59;12.70;99.90
43581;DHT22;29175;51.030;4.606;2023-11-19T03:59:27;12.70;99.90
43581;DHT22;29175;51.030;4.606;2023-11-19T04:01:53;12.70;99.90
43581;DHT22;29175;51.030;4.606;2023-11-19T04:04:19;12.70;99.90
43581;DHT22;29175;51.030;4.606;2023-11-19T04:06:45;12.60;99.90
43581;DHT22;29175;51.030;4.606;2023-11-19T04:09:11;12.50;99.90
43581;DHT22;29175;51.030;4.606;2023-11-19T04:11:37;12.50;99.90
43581;DHT22;29175;51.030;4.606;2023-11-19T04:14:04;12.40;99.90
43581;DHT22;29175;51.030;4.606;2023-11-19T04:16:30;12.40;99.90
43581;DHT22;29175;51.030;4.606;2023-11-19T04:18:56;12.40;99.90
43581;DHT22;29175;51.030;4.606;2023-11-19T04:21:21;12.40;99.90
43581;DHT22;29175;51.030;4.606;2023-11-19T04:23:49;12.40;99.90
43581;DHT22;29175;51.030;4.606;2023-11-19T04:26:15;12.40;99.90
43581;DHT22;29175;51.030;4.606;2023-11-19T04:28:41;12.50;99.90
43581;DHT22;29175;51.030;4.606;2023-11-19T04:31:07;12.50;99.90
43581;DHT22;29175;51.030;4.606;2023-11-19T04:33:35;12.40;99.90
43581;DHT22;29175;51.030;4.606;2023-11-19T04:36:01;12.40;99.90
43581;DHT22;29175;51.030;4.606;2023-11-19T04:38:28;12.40;99.90
43581;DHT22;29175;51.030;4.606;2023-11-19T04:40:54;12.30;99.90
43581;DHT22;29175;51.030;4.606;2023-11-19T04:43:23;12.20;99.90
43581;DHT22;29175;51.030;4.606;2023-11-19T04:45:50;12.20;99.90
43581;DHT22;29175;51.030;4.606;2023-11-19T04:48:15;12.20;99.90
43581;DHT22;29175;51.030;4.606;2023-11-19T04:50:42;12.20;99.90
43581;DHT22;29175;51.030;4.606;2023-11-19T04:53:08;12.10;99.90
43581;DHT22;29175;51.030;4.606;2023-11-19T04:55:34;12.10;99.90
43581;DHT22;29175;51.030;4.606;2023-11-19T04:58:01;12.10;99.90
43581;DHT22;29175;51.030;4.606;2023-11-19T05:00:28;12.10;99.90
43581;DHT22;29175;51.030;4.606;2023-11-19T05:02:54;12.10;99.90
43581;DHT22;29175;51.030;4.606;2023-11-19T05:05:20;12.00;99.90
43581;DHT22;29175;51.030;4.606;2023-11-19T05:07:47;12.00;99.90
43581;DHT22;29175;51.030;4.606;2023-11-19T05:10:13;12.00;99.90
43581;DHT22;29175;51.030;4.606;2023-11-19T05:12:39;12.00;99.90
43581;DHT22;29175;51.030;4.606;2023-11-19T05:15:05;11.90;99.90
43581;DHT22;29175;51.030;4.606;2023-11-19T05:17:31;11.90;99.90
43581;DHT22;29175;51.030;4.606;2023-11-19T05:20:00;11.80;99.90
43581;DHT22;29175;51.030;4.606;2023-11-19T05:22:25;11.90;99.90
43581;DHT22;29175;51.030;4.606;2023-11-19T05:24:51;11.90;99.90
43581;DHT22;29175;51.030;4.606;2023-11-19T05:27:17;11.70;99.90
43581;DHT22;29175;51.030;4.606;2023-11-19T05:29:44;11.80;99.90
43581;DHT22;29175;51.030;4.606;2023-11-19T05:32:10;11.80;99.90
43581;DHT22;29175;51.030;4.606;2023-11-19T05:34:36;11.80;99.90
43581;DHT22;29175;51.030;4.606;2023-11-19T05:37:01;11.80;99.90
43581;DHT22;29175;51.030;4.606;2023-11-19T05:39:28;11.70;99.90
43581;DHT22;29175;51.030;4.606;2023-11-19T05:41:54;11.60;99.90
43581;DHT22;29175;51.030;4.606;2023-11-19T05:44:19;11.60;99.90
43581;DHT22;29175;51.030;4.606;2023-11-19T05:46:45;11.60;99.90
43581;DHT22;29175;51.030;4.606;2023-11-19T05:49:11;11.60;99.90
43581;DHT22;29175;51.030;4.606;2023-11-19T05:51:39;11.60;99.90
43581;DHT22;29175;51.030;4.606;2023-11-19T05:54:08;11.80;99.90
43581;DHT22;29175;51.030;4.606;2023-11-19T05:56:36;11.70;99.90
43581;DHT22;29175;51.030;4.606;2023-11-19T05:59:02;11.80;99.90
43581;DHT22;29175;51.030;4.606;2023-11-19T06:01:35;11.80;99.90
43581;DHT22;29175;51.030;4.606;2023-11-19T06:04:03;11.70;99.90
43581;DHT22;29175;51.030;4.606;2023-11-19T06:06:30;11.60;99.90
43581;DHT22;29175;51.030;4.606;2023-11-19T06:08:55;11.50;99.90
43581;DHT22;29175;51.030;4.606;2023-11-19T06:11:21;11.50;99.90
43581;DHT22;29175;51.030;4.606;2023-11-19T06:13:47;11.50;99.90
43581;DHT22;29175;51.030;4.606;2023-11-19T06:16:16;11.50;99.90
43581;DHT22;29175;51.030;4.606;2023-11-19T06:18:42;11.50;99.90
43581;DHT22;29175;51.030;4.606;2023-11-19T06:21:09;11.50;99.90
43581;DHT22;29175;51.030;4.606;2023-11-19T06:23:35;11.50;99.90
43581;DHT22;29175;51.030;4.606;2023-11-19T06:26:01;11.60;99.90
43581;DHT22;29175;51.030;4.606;2023-11-19T06:28:29;11.70;99.90
43581;DHT22;29175;51.030;4.606;2023-11-19T06:30:55;11.70;99.90
43581;DHT22;29175;51.030;4.606;2023-11-19T06:33:24;11.90;99.90
43581;DHT22;29175;51.030;4.606;2023-11-19T06:35:50;12.00;99.90
43581;DHT22;29175;51.030;4.606;2023-11-19T06:38:16;12.00;99.90
43581;DHT22;29175;51.030;4.606;2023-11-19T06:40:42;12.00;99.90
43581;DHT22;29175;51.030;4.606;2023-11-19T06:43:07;11.80;99.90
43581;DHT22;29175;51.030;4.606;2023-11-19T06:45:36;11.70;99.90
43581;DHT22;29175;51.030;4.606;2023-11-19T06:48:02;11.70;99.90
43581;DHT22;29175;51.030;4.606;2023-11-19T06:50:32;11.80;99.90
43581;DHT22;29175;51.030;4.606;2023-11-19T06:52:58;11.60;99.90
43581;DHT22;29175;51.030;4.606;2023-11-19T06:55:24;11.60;99.90
43581;DHT22;29175;51.030;4.606;2023-11-19T06:57:50;11.50;99.90
43581;DHT22;29175;51.030;4.606;2023-11-19T07:00:16;11.50;99.90
43581;DHT22;29175;51.030;4.606;2023-11-19T07:02:44;11.50;99.90
43581;DHT22;29175;51.030;4.606;2023-11-19T07:05:10;11.50;99.90
43581;DHT22;29175;51.030;4.606;2023-11-19T07:07:35;11.50;99.90
43581;DHT22;29175;51.030;4.606;2023-11-19T07:10:01;11.40;99.90
43581;DHT22;29175;51.030;4.606;2023-11-19T07:12:32;11.40;99.90
43581;DHT22;29175;51.030;4.606;2023-11-19T07:14:58;11.40;99.90
43581;DHT22;29175;51.030;4.606;2023-11-19T07:17:23;11.40;99.90
43581;DHT22;29175;51.030;4.606;2023-11-19T07:19:50;11.40;99.90
43581;DHT22;29175;51.030;4.606;2023-11-19T07:22:16;11.40;99.90
43581;DHT22;29175;51.030;4.606;2023-11-19T07:24:42;11.40;99.90
43581;DHT22;29175;51.030;4.606;2023-11-19T07:27:08;11.40;99.90
43581;DHT22;29175;51.030;4.606;2023-11-19T07:29:36;11.50;99.90
43581;DHT22;29175;51.030;4.606;2023-11-19T07:32:02;11.60;99.90
43581;DHT22;29175;51.030;4.606;2023-11-19T07:34:28;11.50;99.90
43581;DHT22;29175;51.030;4.606;2023-11-19T07:36:54;11.60;99.90
43581;DHT22;29175;51.030;4.606;2023-11-19T07:39:22;11.60;99.90
43581;DHT22;29175;51.030;4.606;2023-11-19T07:41:49;11.60;99.90
43581;DHT22;29175;51.030;4.606;2023-11-19T07:44:17;11.60;99.90
43581;DHT22;29175;51.030;4.606;2023-11-19T07:46:43;11.60;99.90
43581;DHT22;29175;51.030;4.606;2023-11-19T07:49:10;11.70;99.90
43581;DHT22;29175;51.030;4.606;2023-11-19T07:51:36;11.70;99.90
43581;DHT22;29175;51.030;4.606;2023-11-19T07:54:02;11.70;99.90
43581;DHT22;29175;51.030;4.606;2023-11-19T07:56:27;11.70;99.90
43581;DHT22;29175;51.030;4.606;2023-11-19T07:58:53;11.80;99.90
43581;DHT22;29175;51.030;4.606;2023-11-19T08:01:19;11.90;99.90
43581;DHT22;29175;51.030;4.606;2023-11-19T08:03:44;11.90;99.90
43581;DHT22;29175;51.030;4.606;2023-11-19T08:06:10;11.90;99.90
43581;DHT22;29175;51.030;4.606;2023-11-19T08:08:36;11.90;99.90
43581;DHT22;29175;51.030;4.606;2023-11-19T08:11:04;12.00;99.90
43581;DHT22;29175;51.030;4.606;2023-11-19T08:13:30;12.00;99.90
43581;DHT22;29175;51.030;4.606;2023-11-19T08:15:58;12.20;99.90
43581;DHT22;29175;51.030;4.606;2023-11-19T08:18:24;12.30;99.90
43581;DHT22;29175;51.030;4.606;2023-11-19T08:20:50;12.20;99.90
43581;DHT22;29175;51.030;4.606;2023-11-19T08:23:19;12.20;99.90
43581;DHT22;29175;51.030;4.606;2023-11-19T08:25:48;12.30;99.90
43581;DHT22;29175;51.030;4.606;2023-11-19T08:28:14;12.40;99.90
43581;DHT22;29175;51.030;4.606;2023-11-19T08:30:40;12.60;99.90
43581;DHT22;29175;51.030;4.606;2023-11-19T08:33:06;12.50;99.90
43581;DHT22;29175;51.030;4.606;2023-11-19T08:35:33;12.50;99.90
43581;DHT22;29175;51.030;4.606;2023-11-19T08:38:02;12.40;99.90
43581;DHT22;29175;51.030;4.606;2023-11-19T08:40:28;12.40;99.90
43581;DHT22;29175;51.030;4.606;2023-11-19T08:43:00;12.50;99.90
43581;DHT22;29175;51.030;4.606;2023-11-19T08:45:27;12.70;99.90
43581;DHT22;29175;51.030;4.606;2023-11-19T08:47:52;12.70;99.90
43581;DHT22;29175;51.030;4.606;2023-11-19T08:50:19;12.60;99.90
43581;DHT22;29175;51.030;4.606;2023-11-19T08:52:46;12.60;99.90
43581;DHT22;29175;51.030;4.606;2023-11-19T08:55:12;12.50;99.90
43581;DHT22;29175;51.030;4.606;2023-11-19T08:57:39;12.60;99.90
43581;DHT22;29175;51.030;4.606;2023-11-19T09:00:06;12.60;99.90
43581;DHT22;29175;51.030;4.606;2023-11-19T09:02:36;12.60;99.90
43581;DHT22;29175;51.030;4.606;2023-11-19T09:05:06;12.60;99.90
43581;DHT22;29175;51.030;4.606;2023-11-19T09:07:35;12.50;99.90
43581;DHT22;29175;51.030;4.606;2023-11-19T09:10:01;12.50;99.90
43581;DHT22;29175;51.030;4.606;2023-11-19T09:12:30;12.50;99.90
43581;DHT22;29175;51.030;4.606;2023-11-19T09:14:55;12.50;99.90
43581;DHT22;29175;51.030;4.606;2023-11-19T09:17:21;12.40;99.90
43581;DHT22;29175;51.030;4.606;2023-11-19T09:19:48;12.50;99.90
43581;DHT22;29175;51.030;4.606;2023-11-19T09:22:14;12.50;99.90
43581;DHT22;29175;51.030;4.606;2023-11-19T09:24:41;12.50;99.90
43581;DHT22;29175;51.030;4.606;2023-11-19T09:27:12;12.50;99.90
43581;DHT22;29175;51.030;4.606;2023-11-19T09:29:41;12.60;99.90
43581;DHT22;29175;51.030;4.606;2023-11-19T09:32:09;12.60;99.90
43581;DHT22;29175;51.030;4.606;2023-11-19T09:34:36;12.70;99.90
43581;DHT22;29175;51.030;4.606;2023-11-19T09:37:07;12.70;99.90
43581;DHT22;29175;51.030;4.606;2023-11-19T09:39:35;12.80;99.90
43581;DHT22;29175;51.030;4.606;2023-11-19T09:42:02;12.90;99.90
43581;DHT22;29175;51.030;4.606;2023-11-19T09:44:31;13.00;99.90
43581;DHT22;29175;51.030;4.606;2023-11-19T09:46:59;13.20;99.90
43581;DHT22;29175;51.030;4.606;2023-11-19T09:49:26;13.20;99.90
43581;DHT22;29175;51.030;4.606;2023-11-19T09:51:53;13.20;99.90
43581;DHT22;29175;51.030;4.606;2023-11-19T09:54:21;13.30;99.90
43581;DHT22;29175;51.030;4.606;2023-11-19T09:56:47;13.40;99.90
43581;DHT22;29175;51.030;4.606;2023-11-19T09:59:14;13.60;99.90
43581;DHT22;29175;51.030;4.606;2023-11-19T10:01:41;13.80;99.90
43581;DHT22;29175;51.030;4.606;2023-11-19T10:04:09;13.80;99.90
43581;DHT22;29175;51.030;4.606;2023-11-19T10:06:35;13.80;99.90
43581;DHT22;29175;51.030;4.606;2023-11-19T10:09:01;13.70;99.90
43581;DHT22;29175;51.030;4.606;2023-11-19T10:11:28;13.60;99.90
43581;DHT22;29175;51.030;4.606;2023-11-19T10:13:54;13.50;99.90
43581;DHT22;29175;51.030;4.606;2023-11-19T10:16:20;13.40;99.90
43581;DHT22;29175;51.030;4.606;2023-11-19T10:18:47;13.30;99.90
43581;DHT22;29175;51.030;4.606;2023-11-19T10:21:17;13.30;99.90
43581;DHT22;29175;51.030;4.606;2023-11-19T10:23:53;13.20;99.90
43581;DHT22;29175;51.030;4.606;2023-11-19T10:26:23;13.30;99.90
43581;DHT22;29175;51.030;4.606;2023-11-19T10:28:51;13.30;99.90
43581;DHT22;29175;51.030;4.606;2023-11-19T10:31:19;13.50;99.90
43581;DHT22;29175;51.030;4.606;2023-11-19T10:33:48;13.70;99.90
43581;DHT22;29175;51.030;4.606;2023-11-19T10:36:15;13.80;99.90
43581;DHT22;29175;51.030;4.606;2023-11-19T10:38:57;13.90;99.90
43581;DHT22;29175;51.030;4.606;2023-11-19T10:41:31;13.90;99.90
43581;DHT22;29175;51.030;4.606;2023-11-19T10:44:00;13.80;99.90
43581;DHT22;29175;51.030;4.606;2023-11-19T10:46:39;13.80;99.90
43581;DHT22;29175;51.030;4.606;2023-11-19T10:49:08;13.90;99.90
43581;DHT22;29175;51.030;4.606;2023-11-19T10:51:34;13.80;99.90
43581;DHT22;29175;51.030;4.606;2023-11-19T10:54:09;13.70;99.90
43581;DHT22;29175;51.030;4.606;2023-11-19T10:56:37;13.70;99.90
43581;DHT22;29175;51.030;4.606;2023-11-19T10:59:03;13.80;99.90
43581;DHT22;29175;51.030;4.606;2023-11-19T11:01:40;13.80;99.90
43581;DHT22;29175;51.030;4.606;2023-11-19T11:04:23;13.90;99.90
43581;DHT22;29175;51.030;4.606;2023-11-19T11:06:51;13.90;99.90
43581;DHT22;29175;51.030;4.606;2023-11-19T11:09:17;13.90;99.90
43581;DHT22;29175;51.030;4.606;2023-11-19T11:11:47;13.90;99.90
43581;DHT22;29175;51.030;4.606;2023-11-19T11:14:16;13.80;99.90
43581;DHT22;29175;51.030;4.606;2023-11-19T11:16:50;13.70;99.90
43581;DHT22;29175;51.030;4.606;2023-11-19T11:19:20;13.80;99.90
43581;DHT22;29175;51.030;4.606;2023-11-19T11:21:53;13.80;99.90
43581;DHT22;29175;51.030;4.606;2023-11-19T11:27:45;13.80;99.90
43581;DHT22;29175;51.030;4.606;2023-11-19T11:30:46;13.90;99.90
43581;DHT22;29175;51.030;4.606;2023-11-19T11:35:54;14.10;99.90
43581;DHT22;29175;51.030;4.606;2023-11-19T11:38:24;14.20;99.90
43581;DHT22;29175;51.030;4.606;2023-11-19T11:41:15;14.30;99.90
43581;DHT22;29175;51.030;4.606;2023-11-19T11:43:50;14.30;99.90
43581;DHT22;29175;51.030;4.606;2023-11-19T11:49:04;14.10;99.90
43581;DHT22;29175;51.030;4.606;2023-11-19T11:57:01;14.30;99.90
43581;DHT22;29175;51.030;4.606;2023-11-19T11:59:36;14.70;99.90
43581;DHT22;29175;51.030;4.606;2023-11-19T12:02:03;15.10;99.90
43581;DHT22;29175;51.030;4.606;2023-11-19T12:04:29;15.30;99.90
43581;DHT22;29175;51.030;4.606;2023-11-19T12:07:12;15.20;99.90
43581;DHT22;29175;51.030;4.606;2023-11-19T12:09:40;14.80;99.90
43581;DHT22;29175;51.030;4.606;2023-11-19T12:12:19;14.60;99.90
43581;DHT22;29175;51.030;4.606;2023-11-19T12:20:05;13.90;99.90
43581;DHT22;29175;51.030;4.606;2023-11-19T12:22:41;13.70;99.90
43581;DHT22;29175;51.030;4.606;2023-11-19T12:25:09;13.40;99.90
43581;DHT22;29175;51.030;4.606;2023-11-19T12:27:37;13.40;99.90
43581;DHT22;29175;51.030;4.606;2023-11-19T12:30:03;13.30;99.90
43581;DHT22;29175;51.030;4.606;2023-11-19T12:32:42;13.40;99.90
43581;DHT22;29175;51.030;4.606;2023-11-19T12:35:09;13.30;99.90
43581;DHT22;29175;51.030;4.606;2023-11-19T12:37:45;13.40;99.90
43581;DHT22;29175;51.030;4.606;2023-11-19T12:40:24;13.30;99.90
43581;DHT22;29175;51.030;4.606;2023-11-19T12:42:51;13.30;99.90
43581;DHT22;29175;51.030;4.606;2023-11-19T12:45:18;13.20;99.90
43581;DHT22;29175;51.030;4.606;2023-11-19T12:47:46;13.40;99.90
43581;DHT22;29175;51.030;4.606;2023-11-19T12:50:16;13.40;99.90
43581;DHT22;29175;51.030;4.606;2023-11-19T12:52:55;13.50;99.90
43581;DHT22;29175;51.030;4.606;2023-11-19T12:55:28;13.50;99.90
43581;DHT22;29175;51.030;4.606;2023-11-19T12:57:56;13.50;99.90
43581;DHT22;29175;51.030;4.606;2023-11-19T13:00:23;13.60;99.90
43581;DHT22;29175;51.030;4.606;2023-11-19T13:02:55;13.70;99.90
43581;DHT22;29175;51.030;4.606;2023-11-19T13:07:47;13.40;99.90
43581;DHT22;29175;51.030;4.606;2023-11-19T13:10:12;13.40;99.90
43581;DHT22;29175;51.030;4.606;2023-11-19T13:12:40;13.30;99.90
43581;DHT22;29175;51.030;4.606;2023-11-19T13:15:06;13.20;99.90
43581;DHT22;29175;51.030;4.606;2023-11-19T13:17:31;13.20;99.90
43581;DHT22;29175;51.030;4.606;2023-11-19T13:19:57;13.30;99.90
43581;DHT22;29175;51.030;4.606;2023-11-19T13:22:23;13.30;99.90
43581;DHT22;29175;51.030;4.606;2023-11-19T13:24:49;13.20;99.90
43581;DHT22;29175;51.030;4.606;2023-11-19T13:27:15;13.10;99.90
43581;DHT22;29175;51.030;4.606;2023-11-19T13:29:41;13.10;99.90
43581;DHT22;29175;51.030;4.606;2023-11-19T13:32:06;13.10;99.90
43581;DHT22;29175;51.030;4.606;2023-11-19T13:34:33;13.10;99.90
43581;DHT22;29175;51.030;4.606;2023-11-19T13:36:59;13.00;99.90
43581;DHT22;29175;51.030;4.606;2023-11-19T13:39:27;13.00;99.90
43581;DHT22;29175;51.030;4.606;2023-11-19T13:41:53;13.00;99.90
43581;DHT22;29175;51.030;4.606;2023-11-19T13:44:19;13.00;99.90
43581;DHT22;29175;51.030;4.606;2023-11-19T13:46:45;12.90;99.90
43581;DHT22;29175;51.030;4.606;2023-11-19T13:49:12;12.90;99.90
43581;DHT22;29175;51.030;4.606;2023-11-19T13:51:38;13.10;99.90
43581;DHT22;29175;51.030;4.606;2023-11-19T13:54:04;13.20;99.90
43581;DHT22;29175;51.030;4.606;2023-11-19T13:56:30;13.20;99.90
43581;DHT22;29175;51.030;4.606;2023-11-19T13:58:57;13.20;99.90
43581;DHT22;29175;51.030;4.606;2023-11-19T14:01:25;13.10;99.90
43581;DHT22;29175;51.030;4.606;2023-11-19T14:03:52;13.20;99.90
43581;DHT22;29175;51.030;4.606;2023-11-19T14:06:19;13.20;99.90
43581;DHT22;29175;51.030;4.606;2023-11-19T14:08:46;13.10;99.90
43581;DHT22;29175;51.030;4.606;2023-11-19T14:11:14;12.90;99.90
43581;DHT22;29175;51.030;4.606;2023-11-19T14:13:42;12.90;99.90
43581;DHT22;29175;51.030;4.606;2023-11-19T14:16:08;13.00;99.90
43581;DHT22;29175;51.030;4.606;2023-11-19T14:18:34;13.10;99.90
43581;DHT22;29175;51.030;4.606;2023-11-19T14:21:01;13.10;99.90
43581;DHT22;29175;51.030;4.606;2023-11-19T14:23:29;13.00;99.90
43581;DHT22;29175;51.030;4.606;2023-11-19T14:25:55;13.10;99.90
43581;DHT22;29175;51.030;4.606;2023-11-19T14:28:20;13.10;99.90
43581;DHT22;29175;51.030;4.606;2023-11-19T14:30:46;13.30;99.90
43581;DHT22;29175;51.030;4.606;2023-11-19T14:33:13;13.10;99.90
43581;DHT22;29175;51.030;4.606;2023-11-19T14:35:39;13.00;99.90
43581;DHT22;29175;51.030;4.606;2023-11-19T14:38:04;12.80;99.90
43581;DHT22;29175;51.030;4.606;2023-11-19T14:40:32;12.70;99.90
43581;DHT22;29175;51.030;4.606;2023-11-19T14:42:58;12.70;99.90
43581;DHT22;29175;51.030;4.606;2023-11-19T14:45:23;12.80;99.90
43581;DHT22;29175;51.030;4.606;2023-11-19T14:47:49;12.70;99.90
43581;DHT22;29175;51.030;4.606;2023-11-19T14:50:15;12.60;99.90
43581;DHT22;29175;51.030;4.606;2023-11-19T14:52:41;12.50;99.90
43581;DHT22;29175;51.030;4.606;2023-11-19T14:55:07;12.40;99.90
43581;DHT22;29175;51.030;4.606;2023-11-19T14:57:35;12.30;99.90
43581;DHT22;29175;51.030;4.606;2023-11-19T15:00:01;12.40;99.90
43581;DHT22;29175;51.030;4.606;2023-11-19T15:02:34;12.30;99.90
43581;DHT22;29175;51.030;4.606;2023-11-19T15:05:00;12.40;99.90
43581;DHT22;29175;51.030;4.606;2023-11-19T15:07:26;12.20;99.90
43581;DHT22;29175;51.030;4.606;2023-11-19T15:09:52;12.10;99.90
43581;DHT22;29175;51.030;4.606;2023-11-19T15:12:17;12.00;99.90
43581;DHT22;29175;51.030;4.606;2023-11-19T15:14:43;12.10;99.90
43581;DHT22;29175;51.030;4.606;2023-11-19T15:17:08;12.00;99.90
43581;DHT22;29175;51.030;4.606;2023-11-19T15:19:34;12.00;99.90
43581;DHT22;29175;51.030;4.606;2023-11-19T15:22:00;12.00;99.90
43581;DHT22;29175;51.030;4.606;2023-11-19T15:24:29;12.00;99.90
43581;DHT22;29175;51.030;4.606;2023-11-19T15:26:55;12.00;99.90
43581;DHT22;29175;51.030;4.606;2023-11-19T15:29:21;12.00;99.90
43581;DHT22;29175;51.030;4.606;2023-11-19T15:31:48;12.00;99.90
43581;DHT22;29175;51.030;4.606;2023-11-19T15:34:14;12.00;99.90
43581;DHT22;29175;51.030;4.606;2023-11-19T15:36:40;12.10;99.90
43581;DHT22;29175;51.030;4.606;2023-11-19T15:39:06;12.10;99.90
43581;DHT22;29175;51.030;4.606;2023-11-19T15:41:32;12.10;99.90
43581;DHT22;29175;51.030;4.606;2023-11-19T15:43:58;12.10;99.90
43581;DHT22;29175;51.030;4.606;2023-11-19T15:46:24;12.20;99.90
43581;DHT22;29175;51.030;4.606;2023-11-19T15:48:49;12.30;99.90
43581;DHT22;29175;51.030;4.606;2023-11-19T15:51:15;12.30;99.90
43581;DHT22;29175;51.030;4.606;2023-11-19T15:53:40;12.20;99.90
43581;DHT22;29175;51.030;4.606;2023-11-19T15:56:07;12.20;99.90